createdAt,value
2023-09-20T00:00:25.747Z,94885.88
2023-09-20T00:01:22.947Z,94900.03
2023-09-20T00:02:19.943Z,94884.78
2023-09-20T00:03:17.171Z,94807.38
2023-09-20T00:04:14.266Z,94905.88
2023-09-20T00:05:16.598Z,94923.00
2023-09-20T00:06:13.555Z,94769.53
2023-09-20T00:07:10.445Z,94852.53
2023-09-20T00:08:07.290Z,94923.81
2023-09-20T00:09:05.253Z,94917.09
2023-09-20T00:10:03.116Z,94868.28
2023-09-20T00:10:59.990Z,94915.25
2023-09-20T00:11:56.919Z,94912.06
2023-09-20T00:12:53.702Z,94833.59
2023-09-20T00:13:51.091Z,94844.50
2023-09-20T00:14:47.922Z,94873.13
2023-09-20T00:15:44.795Z,94846.63
2023-09-20T00:16:42.070Z,94923.19
2023-09-20T00:17:39.425Z,94923.75
2023-09-20T00:18:36.616Z,94901.09
2023-09-20T00:19:33.766Z,94914.72
2023-09-20T00:20:30.573Z,94921.69
2023-09-20T00:21:27.429Z,94878.94
2023-09-20T00:22:24.224Z,94841.53
2023-09-20T00:23:22.736Z,94921.09
2023-09-20T00:24:19.582Z,94915.75
2023-09-20T00:25:16.522Z,94858.00
2023-09-20T00:26:14.840Z,94726.75
2023-09-20T00:27:11.745Z,94928.56
2023-09-20T00:28:09.335Z,94842.59
2023-09-20T00:29:09.885Z,94827.38
2023-09-20T00:30:11.561Z,94832.19
2023-09-20T00:31:10.405Z,94937.06
2023-09-20T00:32:08.883Z,94831.91
2023-09-20T00:33:06.398Z,94851.34
2023-09-20T00:34:04.737Z,94918.94
2023-09-20T00:35:01.949Z,94932.31
2023-09-20T00:35:58.845Z,94873.75
2023-09-20T00:36:55.735Z,94919.97
2023-09-20T00:38:10.867Z,94924.16
2023-09-20T00:39:10.895Z,94859.44
2023-09-20T00:40:17.508Z,94911.22
2023-09-20T00:41:14.734Z,94837.00
2023-09-20T00:42:12.131Z,94919.25
2023-09-20T00:43:12.493Z,94912.38
2023-09-20T00:44:10.142Z,94900.69
2023-09-20T00:45:08.260Z,94831.19
2023-09-20T00:46:06.062Z,94852.63
2023-09-20T00:47:05.033Z,94833.59
2023-09-20T00:48:03.705Z,94876.94
2023-09-20T00:49:01.510Z,94921.91
2023-09-20T00:49:58.887Z,94823.75
2023-09-20T00:50:55.767Z,94837.63
2023-09-20T00:51:53.544Z,94897.19
2023-09-20T00:52:55.874Z,94829.59
2023-09-20T00:53:58.698Z,94831.44
2023-09-20T00:54:58.796Z,94901.06
2023-09-20T00:55:56.702Z,94908.06
2023-09-20T00:56:53.969Z,94665.75
2023-09-20T00:57:54.874Z,94891.00
2023-09-20T00:58:53.937Z,94916.59
2023-09-20T00:59:51.335Z,94899.78
2023-09-20T01:00:49.057Z,94842.34
2023-09-20T01:01:46.054Z,94919.78
2023-09-20T01:02:45.606Z,94835.38
2023-09-20T01:03:45.379Z,94906.44
2023-09-20T01:04:43.532Z,94880.72
2023-09-20T01:05:41.040Z,94826.75
2023-09-20T01:06:41.052Z,94910.38
2023-09-20T01:07:39.011Z,94910.28
2023-09-20T01:08:35.841Z,94871.41
2023-09-20T01:09:32.666Z,94839.13
2023-09-20T01:10:32.319Z,94880.25
2023-09-20T01:11:29.461Z,94896.25
2023-09-20T01:12:26.422Z,94846.25
2023-09-20T01:13:23.398Z,94916.19
2023-09-20T01:14:21.722Z,94684.53
2023-09-20T01:15:18.709Z,94886.34
2023-09-20T01:16:16.631Z,94876.69
2023-09-20T01:17:15.788Z,94904.50
2023-09-20T01:18:13.565Z,94799.00
2023-09-20T01:19:10.496Z,94859.97
2023-09-20T01:20:16.854Z,94901.31
2023-09-20T01:21:13.773Z,94890.25
2023-09-20T01:22:11.943Z,94891.53
2023-09-20T01:23:09.094Z,94895.50
2023-09-20T01:24:06.930Z,94873.91
2023-09-20T01:25:08.923Z,94826.84
2023-09-20T01:26:06.914Z,94904.81
2023-09-20T01:27:05.652Z,94787.84
2023-09-20T01:28:05.568Z,94883.47
2023-09-20T01:29:02.454Z,94815.81
2023-09-20T01:29:59.260Z,94878.09
2023-09-20T01:30:56.145Z,94848.63
2023-09-20T01:31:52.946Z,94893.06
2023-09-20T01:32:50.130Z,94760.91
2023-09-20T01:33:46.944Z,94914.97
2023-09-20T01:34:43.730Z,94904.34
2023-09-20T01:35:40.470Z,94818.59
2023-09-20T01:36:37.994Z,94711.00
2023-09-20T01:37:34.895Z,94907.75
2023-09-20T01:38:31.897Z,94870.09
2023-09-20T01:39:28.772Z,94838.03
2023-09-20T01:40:27.699Z,94811.84
2023-09-20T01:41:26.588Z,94910.69
2023-09-20T01:42:23.521Z,94915.81
2023-09-20T01:43:23.222Z,94697.22
2023-09-20T01:44:20.082Z,94807.50
2023-09-20T01:45:19.680Z,94908.59
2023-09-20T01:46:16.968Z,94842.91
2023-09-20T01:47:14.078Z,94898.50
2023-09-20T01:48:12.796Z,94876.63
2023-09-20T01:49:11.805Z,94825.88
2023-09-20T01:50:09.579Z,94754.41
2023-09-20T01:51:06.543Z,94826.00
2023-09-20T01:52:06.809Z,94906.66
2023-09-20T01:53:07.218Z,94833.47
2023-09-20T01:54:05.170Z,94882.56
2023-09-20T01:55:03.662Z,94822.81
2023-09-20T01:56:01.564Z,94852.09
2023-09-20T01:56:58.456Z,94819.31
2023-09-20T01:57:57.172Z,94916.22
2023-09-20T01:58:54.688Z,94842.78
2023-09-20T01:59:52.849Z,94889.47
2023-09-20T02:00:52.276Z,94864.38
2023-09-20T02:01:49.795Z,94841.66
2023-09-20T02:02:46.724Z,94890.72
2023-09-20T02:03:43.883Z,94904.16
2023-09-20T02:04:40.844Z,94894.25
2023-09-20T02:05:38.102Z,94844.59
2023-09-20T02:06:35.003Z,94804.06
2023-09-20T02:07:31.897Z,94905.47
2023-09-20T02:08:28.979Z,94811.16
2023-09-20T02:09:25.948Z,94893.09
2023-09-20T02:10:22.901Z,94796.28
2023-09-20T02:11:19.740Z,94901.81
2023-09-20T02:12:16.565Z,94895.59
2023-09-20T02:13:14.699Z,94851.53
2023-09-20T02:14:12.616Z,94903.34
2023-09-20T02:15:12.286Z,94907.59
2023-09-20T02:16:09.167Z,94906.50
2023-09-20T02:17:06.611Z,94828.03
2023-09-20T02:18:06.621Z,94897.97
2023-09-20T02:19:05.224Z,94905.47
2023-09-20T02:20:12.615Z,94840.09
2023-09-20T02:21:09.456Z,94904.91
2023-09-20T02:22:07.216Z,94911.66
2023-09-20T02:23:06.336Z,94877.72
2023-09-20T02:24:03.621Z,94885.66
2023-09-20T02:25:00.371Z,94896.88
2023-09-20T02:25:57.648Z,94908.63
2023-09-20T02:26:54.524Z,94899.31
2023-09-20T02:28:11.774Z,94827.44
2023-09-20T02:29:09.485Z,94913.66
2023-09-20T02:30:10.277Z,94913.94
2023-09-20T02:31:07.996Z,94896.88
2023-09-20T02:32:04.870Z,94907.81
2023-09-20T02:33:02.783Z,94830.72
2023-09-20T02:34:00.438Z,94921.97
2023-09-20T02:34:57.366Z,94921.44
2023-09-20T02:35:54.158Z,94920.34
2023-09-20T02:36:51.707Z,94852.00
2023-09-20T02:37:50.468Z,94913.66
2023-09-20T02:38:47.496Z,94916.09
2023-09-20T02:39:44.344Z,94824.09
2023-09-20T02:40:41.148Z,94845.09
2023-09-20T02:41:38.264Z,94921.78
2023-09-20T02:42:49.421Z,94836.03
2023-09-20T02:43:46.722Z,94934.19
2023-09-20T02:44:43.459Z,94846.63
2023-09-20T02:45:41.762Z,94917.66
2023-09-20T02:46:38.862Z,94915.53
2023-09-20T02:47:36.289Z,94873.53
2023-09-20T02:48:35.679Z,94845.59
2023-09-20T02:49:35.602Z,94919.81
2023-09-20T02:50:33.279Z,94811.84
2023-09-20T02:51:30.163Z,94858.34
2023-09-20T02:52:26.995Z,94717.38
2023-09-20T02:53:23.857Z,94839.72
2023-09-20T02:54:20.734Z,94863.72
2023-09-20T02:55:22.145Z,94844.50
2023-09-20T02:56:19.501Z,94822.06
2023-09-20T02:57:16.711Z,94869.88
2023-09-20T02:58:14.624Z,94882.38
2023-09-20T02:59:11.737Z,94900.53
2023-09-20T03:00:16.788Z,94836.47
2023-09-20T03:01:17.083Z,94932.13
2023-09-20T03:02:13.937Z,94939.41
2023-09-20T03:03:11.904Z,94721.28
2023-09-20T03:04:09.082Z,94907.25
2023-09-20T03:05:06.752Z,94897.31
2023-09-20T03:06:11.412Z,94844.38
2023-09-20T03:07:08.283Z,94923.44
2023-09-20T03:08:06.361Z,94922.78
2023-09-20T03:09:04.931Z,94845.41
2023-09-20T03:10:03.328Z,94830.91
2023-09-20T03:11:01.136Z,94936.91
2023-09-20T03:11:57.932Z,94911.13
2023-09-20T03:12:56.654Z,94918.00
2023-09-20T03:13:53.481Z,94834.09
2023-09-20T03:14:51.403Z,94844.78
2023-09-20T03:15:50.336Z,94888.56
2023-09-20T03:16:47.248Z,94890.19
2023-09-20T03:17:46.315Z,94911.56
2023-09-20T03:18:43.397Z,94863.44
2023-09-20T03:19:40.356Z,94887.59
2023-09-20T03:20:39.802Z,94872.03
2023-09-20T03:21:37.024Z,94849.91
2023-09-20T03:22:37.572Z,94846.50
2023-09-20T03:23:34.767Z,94842.50
2023-09-20T03:24:31.762Z,94839.63
2023-09-20T03:25:37.015Z,94911.97
2023-09-20T03:26:34.471Z,94927.31
2023-09-20T03:27:32.236Z,94887.28
2023-09-20T03:28:28.989Z,94888.25
2023-09-20T03:29:27.284Z,94859.16
2023-09-20T03:30:24.254Z,94723.00
2023-09-20T03:31:23.483Z,94833.81
2023-09-20T03:32:20.587Z,94878.09
2023-09-20T03:33:18.522Z,94923.47
2023-09-20T03:34:15.973Z,94802.63
2023-09-20T03:35:16.839Z,94910.75
2023-09-20T03:36:17.070Z,94855.97
2023-09-20T03:37:14.160Z,94922.75
2023-09-20T03:38:11.084Z,94825.16
2023-09-20T03:39:12.571Z,94840.88
2023-09-20T03:40:18.010Z,94927.44
2023-09-20T03:41:15.178Z,94845.47
2023-09-20T03:42:12.500Z,94944.03
2023-09-20T03:43:09.822Z,94919.72
2023-09-20T03:44:07.536Z,94928.09
2023-09-20T03:45:06.238Z,94915.56
2023-09-20T03:46:03.361Z,94884.38
2023-09-20T03:47:00.643Z,94914.09
2023-09-20T03:47:58.999Z,94925.56
2023-09-20T03:48:56.163Z,94911.97
2023-09-20T03:49:53.367Z,94898.09
2023-09-20T03:50:50.898Z,94836.38
2023-09-20T03:51:49.556Z,94926.22
2023-09-20T03:52:47.698Z,94921.88
2023-09-20T03:53:45.484Z,94934.09
2023-09-20T03:54:42.431Z,94935.22
2023-09-20T03:55:39.234Z,94928.28
2023-09-20T03:56:36.894Z,94864.81
2023-09-20T03:57:34.325Z,94845.59
2023-09-20T03:58:31.977Z,94925.72
2023-09-20T03:59:33.252Z,94909.13
2023-09-20T04:00:32.565Z,94863.44
2023-09-20T04:01:29.760Z,94882.84
2023-09-20T04:02:28.262Z,94880.28
2023-09-20T04:03:25.307Z,94929.66
2023-09-20T04:04:22.317Z,94871.72
2023-09-20T04:05:34.721Z,94920.38
2023-09-20T04:06:38.050Z,94931.84
2023-09-20T04:07:34.940Z,94936.91
2023-09-20T04:08:31.925Z,94922.25
2023-09-20T04:09:28.842Z,94921.59
2023-09-20T04:10:25.698Z,94921.09
2023-09-20T04:11:22.773Z,94925.38
2023-09-20T04:12:20.047Z,94858.91
2023-09-20T04:13:16.894Z,94932.59
2023-09-20T04:14:13.924Z,94851.22
2023-09-20T04:15:14.904Z,94900.03
2023-09-20T04:16:12.580Z,94932.38
2023-09-20T04:17:09.797Z,94835.69
2023-09-20T04:18:09.375Z,94921.66
2023-09-20T04:19:07.583Z,94843.66
2023-09-20T04:20:08.993Z,94929.66
2023-09-20T04:21:05.904Z,94854.59
2023-09-20T04:22:05.461Z,94924.50
2023-09-20T04:23:03.997Z,94852.13
2023-09-20T04:24:00.980Z,94839.38
2023-09-20T04:24:58.688Z,94912.53
2023-09-20T04:25:56.918Z,94841.97
2023-09-20T04:26:54.594Z,94833.91
2023-09-20T04:27:51.397Z,94929.63
2023-09-20T04:28:50.147Z,94944.44
2023-09-20T04:29:47.953Z,94933.03
2023-09-20T04:30:44.967Z,94940.28
2023-09-20T04:31:41.953Z,94935.72
2023-09-20T04:32:41.946Z,94942.41
2023-09-20T04:33:40.265Z,94926.63
2023-09-20T04:34:37.126Z,94937.69
2023-09-20T04:35:35.276Z,94907.34
2023-09-20T04:36:32.241Z,94950.84
2023-09-20T04:37:29.066Z,94909.94
2023-09-20T04:38:26.256Z,94943.63
2023-09-20T04:39:27.078Z,94928.28
2023-09-20T04:40:24.784Z,94904.72
2023-09-20T04:41:21.900Z,94936.72
2023-09-20T04:42:18.879Z,94900.31
2023-09-20T04:43:15.823Z,94850.09
2023-09-20T04:44:15.606Z,94883.78
2023-09-20T04:45:16.269Z,94945.47
2023-09-20T04:46:13.280Z,94950.78
2023-09-20T04:47:15.674Z,94877.13
2023-09-20T04:48:12.796Z,94878.03
2023-09-20T04:49:11.731Z,94939.72
2023-09-20T04:50:09.207Z,94867.00
2023-09-20T04:51:06.224Z,94907.59
2023-09-20T04:52:04.870Z,94968.59
2023-09-20T04:53:01.787Z,94870.97
2023-09-20T04:53:58.959Z,94903.31
2023-09-20T04:54:56.708Z,94867.78
2023-09-20T04:55:53.508Z,94910.53
2023-09-20T04:56:50.399Z,94929.53
2023-09-20T04:57:48.777Z,94952.44
2023-09-20T04:58:45.710Z,94922.78
2023-09-20T04:59:43.358Z,94866.22
2023-09-20T05:00:43.236Z,94963.09
2023-09-20T05:01:40.000Z,94952.78
2023-09-20T05:02:37.159Z,94953.06
2023-09-20T05:03:35.147Z,94955.97
2023-09-20T05:04:35.540Z,94961.34
2023-09-20T05:05:32.446Z,94963.19
2023-09-20T05:06:29.339Z,94919.59
2023-09-20T05:07:28.242Z,94901.47
2023-09-20T05:08:25.093Z,94947.75
2023-09-20T05:09:21.959Z,94958.31
2023-09-20T05:10:18.803Z,94940.88
2023-09-20T05:11:16.267Z,94969.72
2023-09-20T05:12:13.632Z,94944.88
2023-09-20T05:13:10.886Z,94878.09
2023-09-20T05:14:07.931Z,94956.53
2023-09-20T05:15:05.664Z,94893.94
2023-09-20T05:16:02.508Z,94961.16
2023-09-20T05:16:59.426Z,94944.44
2023-09-20T05:17:57.674Z,94892.03
2023-09-20T05:18:54.596Z,94969.53
2023-09-20T05:19:51.439Z,94936.41
2023-09-20T05:20:48.449Z,94958.16
2023-09-20T05:21:45.263Z,94973.25
2023-09-20T05:22:42.512Z,94958.75
2023-09-20T05:23:41.704Z,94976.03
2023-09-20T05:24:38.704Z,94957.03
2023-09-20T05:25:36.260Z,94883.25
2023-09-20T05:26:34.051Z,94931.97
2023-09-20T05:27:31.013Z,94866.88
2023-09-20T05:28:27.854Z,94980.41
2023-09-20T05:29:24.799Z,94942.22
2023-09-20T05:30:23.138Z,94969.34
2023-09-20T05:31:20.922Z,94982.28
2023-09-20T05:32:18.324Z,94985.81
2023-09-20T05:33:15.340Z,94871.19
2023-09-20T05:34:12.417Z,94985.03
2023-09-20T05:35:10.397Z,94996.78
2023-09-20T05:36:08.316Z,94899.44
2023-09-20T05:37:05.126Z,94959.91
2023-09-20T05:38:03.679Z,94995.09
2023-09-20T05:39:00.551Z,94914.13
2023-09-20T05:39:57.532Z,94915.88
2023-09-20T05:40:54.917Z,94981.44
2023-09-20T05:41:51.789Z,94917.84
2023-09-20T05:42:51.913Z,94961.28
2023-09-20T05:43:49.586Z,94972.00
2023-09-20T05:44:46.435Z,95008.16
2023-09-20T05:45:43.665Z,95002.03
2023-09-20T05:46:40.647Z,94920.13
2023-09-20T05:47:38.158Z,94979.97
2023-09-20T05:48:36.129Z,95008.06
2023-09-20T05:49:33.022Z,94972.66
2023-09-20T05:50:36.027Z,94948.97
2023-09-20T05:51:33.287Z,95003.53
2023-09-20T05:52:30.180Z,94989.88
2023-09-20T05:53:27.108Z,95000.97
2023-09-20T05:54:24.081Z,94941.06
2023-09-20T05:55:24.135Z,94903.00
2023-09-20T05:56:21.186Z,94844.94
2023-09-20T05:57:20.956Z,94983.34
2023-09-20T05:58:18.481Z,94903.19
2023-09-20T05:59:16.035Z,94972.69
2023-09-20T06:00:19.787Z,94939.56
2023-09-20T06:01:19.508Z,95007.72
2023-09-20T06:02:16.605Z,94995.97
2023-09-20T06:03:14.282Z,94993.41
2023-09-20T06:04:11.376Z,94979.19
2023-09-20T06:05:11.094Z,94997.59
2023-09-20T06:06:09.260Z,94917.50
2023-09-20T06:07:06.282Z,95006.44
2023-09-20T06:08:05.357Z,94987.91
2023-09-20T06:09:02.236Z,94900.34
2023-09-20T06:09:59.582Z,95007.16
2023-09-20T06:10:56.464Z,95001.59
2023-09-20T06:11:53.330Z,94944.53
2023-09-20T06:12:51.909Z,95018.06
2023-09-20T06:13:49.180Z,94998.56
2023-09-20T06:14:46.157Z,94987.56
2023-09-20T06:15:42.994Z,95007.13
2023-09-20T06:16:40.014Z,94946.81
2023-09-20T06:17:37.776Z,95014.34
2023-09-20T06:18:37.660Z,94961.53
2023-09-20T06:19:34.899Z,94944.19
2023-09-20T06:20:32.055Z,94884.66
2023-09-20T06:21:29.339Z,95001.16
2023-09-20T06:22:30.080Z,95011.06
2023-09-20T06:23:28.369Z,94995.00
2023-09-20T06:24:25.250Z,94909.88
2023-09-20T06:25:23.401Z,94991.59
2023-09-20T06:26:20.801Z,94949.09
2023-09-20T06:27:17.715Z,95021.25
2023-09-20T06:28:15.253Z,95023.13
2023-09-20T06:29:12.197Z,94986.25
2023-09-20T06:30:15.897Z,94926.47
2023-09-20T06:31:17.729Z,94997.50
2023-09-20T06:32:18.089Z,95011.94
2023-09-20T06:33:16.358Z,94992.38
2023-09-20T06:34:19.390Z,95017.72
2023-09-20T06:35:16.920Z,94983.97
2023-09-20T06:36:23.747Z,95018.25
2023-09-20T06:37:20.718Z,95005.97
2023-09-20T06:38:17.637Z,94935.31
2023-09-20T06:39:14.930Z,95016.50
2023-09-20T06:40:24.692Z,95029.69
2023-09-20T06:41:24.147Z,95018.03
2023-09-20T06:42:23.927Z,94959.03
2023-09-20T06:43:21.457Z,94921.13
2023-09-20T06:44:18.330Z,95029.56
2023-09-20T06:45:15.192Z,95018.34
2023-09-20T06:46:12.182Z,94938.75
2023-09-20T06:47:09.916Z,95009.09
2023-09-20T06:48:07.575Z,94982.84
2023-09-20T06:49:04.509Z,94948.53
2023-09-20T06:50:05.507Z,94986.97
2023-09-20T06:51:02.421Z,94808.34
2023-09-20T06:52:02.858Z,94998.38
2023-09-20T06:53:00.749Z,94948.50
2023-09-20T06:54:00.116Z,95039.41
2023-09-20T06:54:57.436Z,95008.75
2023-09-20T06:55:55.874Z,95019.81
2023-09-20T06:56:52.711Z,94972.31
2023-09-20T06:57:52.759Z,95054.09
2023-09-20T06:58:56.339Z,95040.38
2023-09-20T06:59:55.620Z,94962.59
2023-09-20T07:00:53.853Z,94978.09
2023-09-20T07:01:51.895Z,94970.47
2023-09-20T07:02:50.367Z,95046.09
2023-09-20T07:03:47.250Z,95029.03
2023-09-20T07:04:44.708Z,94953.69
2023-09-20T07:05:42.312Z,95056.03
2023-09-20T07:06:39.592Z,95062.16
2023-09-20T07:07:36.586Z,95060.03
2023-09-20T07:08:52.181Z,94987.38
2023-09-20T07:10:08.103Z,94988.75
2023-09-20T07:11:23.513Z,95052.56
2023-09-20T07:12:39.838Z,94960.97
2023-09-20T07:13:55.668Z,95041.31
2023-09-20T07:15:07.642Z,94985.50
2023-09-20T07:16:06.874Z,94973.72
2023-09-20T07:17:09.083Z,95043.94
2023-09-20T07:18:13.425Z,95042.91
2023-09-20T07:19:12.752Z,94970.25
2023-09-20T07:20:19.161Z,95026.09
2023-09-20T07:21:16.061Z,95062.69
2023-09-20T07:22:13.436Z,94967.09
2023-09-20T07:23:14.988Z,95052.03
2023-09-20T07:24:13.912Z,95042.66
2023-09-20T07:25:18.816Z,94923.28
2023-09-20T07:26:16.904Z,95056.84
2023-09-20T07:27:13.994Z,95063.97
2023-09-20T07:28:11.099Z,95049.28
2023-09-20T07:29:08.010Z,95025.22
2023-09-20T07:31:28.022Z,94964.09
2023-09-20T07:32:26.869Z,95077.06
2023-09-20T07:33:31.536Z,95007.59
2023-09-20T07:34:28.518Z,94999.03
2023-09-20T07:35:28.620Z,95065.31
2023-09-20T07:36:36.063Z,95076.03
2023-09-20T07:37:34.344Z,95056.84
2023-09-20T07:38:31.886Z,95000.50
2023-09-20T07:39:31.196Z,94979.41
2023-09-20T07:40:32.545Z,95045.88
2023-09-20T07:41:29.345Z,95041.59
2023-09-20T07:42:26.556Z,94973.50
2023-09-20T07:43:29.158Z,95007.94
2023-09-20T07:44:32.577Z,95054.41
2023-09-20T07:45:39.595Z,94990.63
2023-09-20T07:46:39.830Z,95060.03
2023-09-20T07:47:37.851Z,95065.38
2023-09-20T07:48:35.923Z,95051.75
2023-09-20T07:49:33.830Z,94970.88
2023-09-20T07:50:31.347Z,95050.94
2023-09-20T07:51:30.511Z,95007.16
2023-09-20T07:52:27.371Z,95056.56
2023-09-20T07:53:27.072Z,95069.38
2023-09-20T07:54:25.155Z,95045.84
2023-09-20T07:55:22.002Z,94991.81
2023-09-20T07:56:18.965Z,95047.69
2023-09-20T07:57:16.783Z,95075.50
2023-09-20T07:58:21.127Z,94990.56
2023-09-20T07:59:24.806Z,95053.06
2023-09-20T08:00:22.266Z,94986.59
2023-09-20T08:01:23.219Z,95062.72
2023-09-20T08:02:20.750Z,95058.16
2023-09-20T08:03:19.979Z,95044.25
2023-09-20T08:04:19.201Z,95057.63
2023-09-20T08:05:17.123Z,95042.41
2023-09-20T08:06:14.055Z,95028.53
2023-09-20T08:07:11.179Z,95058.44
2023-09-20T08:08:11.799Z,95014.34
2023-09-20T08:09:08.712Z,95053.63
2023-09-20T08:10:06.741Z,94917.75
2023-09-20T08:11:12.990Z,95061.91
2023-09-20T08:12:13.212Z,94980.69
2023-09-20T08:13:10.473Z,95053.88
2023-09-20T08:14:07.459Z,94842.75
2023-09-20T08:15:05.141Z,95059.78
2023-09-20T08:16:05.370Z,95007.69
2023-09-20T08:17:21.122Z,95010.38
2023-09-20T08:18:36.579Z,94973.25
2023-09-20T08:19:33.677Z,94982.31
2023-09-20T08:20:30.655Z,95028.97
2023-09-20T08:21:28.121Z,95043.13
2023-09-20T08:22:25.012Z,94990.78
2023-09-20T08:23:40.725Z,95032.41
2023-09-20T08:24:56.209Z,95056.69
2023-09-20T08:26:11.818Z,95017.72
2023-09-20T08:27:27.223Z,94968.63
2023-09-20T08:28:43.174Z,94997.97
2023-09-20T08:30:00.312Z,95058.78
2023-09-20T08:31:16.399Z,95050.22
2023-09-20T08:32:31.888Z,94960.31
2023-09-20T08:33:47.291Z,95067.31
2023-09-20T08:35:02.901Z,95066.78
2023-09-20T08:36:18.519Z,95052.59
2023-09-20T08:37:33.959Z,95062.97
2023-09-20T08:38:49.586Z,95050.19
2023-09-20T08:40:05.116Z,94972.88
2023-09-20T08:41:20.475Z,95030.47
2023-09-20T08:42:35.987Z,95046.00
2023-09-20T08:43:51.868Z,95024.59
2023-09-20T08:45:13.137Z,95058.78
2023-09-20T08:46:28.591Z,94982.38
2023-09-20T08:47:45.582Z,95040.03
2023-09-20T08:49:02.033Z,95053.84
2023-09-20T08:50:21.585Z,94949.78
2023-09-20T08:51:46.003Z,95051.66
2023-09-20T08:53:01.990Z,94999.44
2023-09-20T08:54:18.788Z,95031.25
2023-09-20T08:55:35.979Z,94993.81
2023-09-20T08:56:53.360Z,94949.66
2023-09-20T08:58:10.695Z,94955.00
2023-09-20T08:59:26.762Z,94963.53
2023-09-20T09:00:26.063Z,95052.09
2023-09-20T09:01:25.045Z,95025.31
2023-09-20T09:02:23.671Z,94949.91
2023-09-20T09:03:22.077Z,95015.16
2023-09-20T09:04:22.228Z,94953.47
2023-09-20T09:05:21.880Z,95017.41
2023-09-20T09:06:19.227Z,94979.78
2023-09-20T09:07:18.598Z,94943.38
2023-09-20T09:08:15.473Z,94961.09
2023-09-20T09:09:15.060Z,94953.66
2023-09-20T09:10:14.920Z,95025.91
2023-09-20T09:11:11.775Z,95030.63
2023-09-20T09:12:11.002Z,94971.31
2023-09-20T09:13:07.892Z,95022.19
2023-09-20T09:14:04.920Z,95028.97
2023-09-20T09:15:02.116Z,94916.16
2023-09-20T09:15:58.987Z,94961.41
2023-09-20T09:17:04.063Z,94966.22
2023-09-20T09:18:01.333Z,95000.72
2023-09-20T09:18:58.378Z,95027.00
2023-09-20T09:19:55.144Z,95030.50
2023-09-20T09:20:53.124Z,94937.88
2023-09-20T09:21:50.000Z,95012.75
2023-09-20T09:22:47.254Z,94970.69
2023-09-20T09:23:47.313Z,94953.91
2023-09-20T09:24:49.041Z,94826.03
2023-09-20T09:25:45.920Z,95035.50
2023-09-20T09:26:46.866Z,95028.94
2023-09-20T09:27:44.887Z,95041.38
2023-09-20T09:28:43.773Z,95037.69
2023-09-20T09:29:44.118Z,94949.97
2023-09-20T09:30:43.297Z,95024.66
2023-09-20T09:31:40.292Z,94964.34
2023-09-20T09:32:43.284Z,94989.34
2023-09-20T09:33:40.828Z,95030.94
2023-09-20T09:34:43.661Z,95013.81
2023-09-20T09:35:48.113Z,95026.16
2023-09-20T09:36:45.587Z,95030.44
2023-09-20T09:37:44.587Z,95030.00
2023-09-20T09:38:41.612Z,95009.25
2023-09-20T09:39:41.733Z,94937.84
2023-09-20T09:40:57.845Z,95023.59
2023-09-20T09:41:56.091Z,94978.63
2023-09-20T09:42:53.451Z,95007.94
2023-09-20T09:44:00.020Z,95023.88
2023-09-20T09:44:56.978Z,95011.41
2023-09-20T09:45:56.659Z,94991.69
2023-09-20T09:46:58.213Z,94984.94
2023-09-20T09:47:57.256Z,94941.91
2023-09-20T09:48:54.584Z,95014.09
2023-09-20T09:49:54.035Z,94957.69
2023-09-20T09:50:53.717Z,94934.19
2023-09-20T09:51:52.482Z,95020.59
2023-09-20T09:52:52.041Z,95013.38
2023-09-20T09:53:51.080Z,95003.91
2023-09-20T09:54:48.567Z,95019.97
2023-09-20T09:55:49.204Z,95008.13
2023-09-20T09:56:46.075Z,94946.47
2023-09-20T09:57:43.184Z,94999.44
2023-09-20T09:58:42.034Z,95019.97
2023-09-20T09:59:41.212Z,95011.50
2023-09-20T10:00:44.306Z,95021.91
2023-09-20T10:01:42.668Z,95011.44
2023-09-20T10:02:44.384Z,94993.22
2023-09-20T10:03:50.467Z,94997.34
2023-09-20T10:04:55.283Z,95014.88
2023-09-20T10:06:08.175Z,94993.84
2023-09-20T10:07:17.816Z,94965.13
2023-09-20T10:08:17.534Z,95011.63
2023-09-20T10:09:19.026Z,95006.81
2023-09-20T10:10:17.929Z,95005.41
2023-09-20T10:11:15.614Z,94889.09
2023-09-20T10:12:12.891Z,94937.78
2023-09-20T10:13:14.247Z,94924.66
2023-09-20T10:14:13.477Z,94947.06
2023-09-20T10:15:12.513Z,94811.97
2023-09-20T10:16:14.526Z,95000.91
2023-09-20T10:17:21.875Z,94993.69
2023-09-20T10:18:18.813Z,95000.06
2023-09-20T10:19:17.265Z,94998.66
2023-09-20T10:20:17.765Z,95002.72
2023-09-20T10:21:18.433Z,94977.78
2023-09-20T10:22:15.544Z,94992.09
2023-09-20T10:23:12.974Z,94980.75
2023-09-20T10:24:15.540Z,94917.97
2023-09-20T10:25:34.090Z,94998.88
2023-09-20T10:26:36.728Z,94996.69
2023-09-20T10:27:36.036Z,94933.47
2023-09-20T10:28:37.643Z,94987.06
2023-09-20T10:29:34.687Z,94992.72
2023-09-20T10:30:35.425Z,94977.72
2023-09-20T10:31:40.533Z,94928.59
2023-09-20T10:32:49.293Z,94910.66
2023-09-20T10:33:54.336Z,94967.13
2023-09-20T10:35:20.715Z,94990.75
2023-09-20T10:36:24.807Z,94963.13
2023-09-20T10:37:23.349Z,94947.88
2023-09-20T10:38:26.629Z,94889.66
2023-09-20T10:39:24.725Z,94924.09
2023-09-20T10:40:21.558Z,94906.19
2023-09-20T10:41:18.610Z,94977.53
2023-09-20T10:42:16.985Z,94980.41
2023-09-20T10:43:17.631Z,94966.97
2023-09-20T10:44:32.209Z,94992.38
2023-09-20T10:45:33.180Z,94965.88
2023-09-20T10:46:37.242Z,94971.88
2023-09-20T10:47:36.142Z,94967.66
2023-09-20T10:48:34.632Z,94958.78
2023-09-20T10:49:46.755Z,94968.47
2023-09-20T10:50:50.729Z,94840.69
2023-09-20T10:51:50.193Z,94899.94
2023-09-20T10:52:59.609Z,94887.38
2023-09-20T10:53:57.402Z,94888.50
2023-09-20T10:55:26.097Z,94958.44
2023-09-20T10:56:44.682Z,94954.53
2023-09-20T10:57:43.935Z,94940.19
2023-09-20T10:58:43.925Z,94880.41
2023-09-20T10:59:47.203Z,94936.50
2023-09-20T11:00:44.229Z,94912.91
2023-09-20T11:01:41.154Z,94882.41
2023-09-20T11:02:39.839Z,94871.72
2023-09-20T11:03:36.785Z,94881.19
2023-09-20T11:04:34.155Z,94951.38
2023-09-20T11:05:31.182Z,94947.78
2023-09-20T11:06:28.436Z,94954.47
2023-09-20T11:07:27.476Z,94946.81
2023-09-20T11:08:25.692Z,94866.25
2023-09-20T11:09:26.898Z,94938.22
2023-09-20T11:10:24.450Z,94869.34
2023-09-20T11:11:24.563Z,94885.09
2023-09-20T11:12:21.528Z,94917.47
2023-09-20T11:13:21.140Z,94924.47
2023-09-20T11:14:20.339Z,94942.91
2023-09-20T11:15:17.826Z,94922.16
2023-09-20T11:16:20.125Z,94878.41
2023-09-20T11:17:17.892Z,94732.63
2023-09-20T11:18:20.600Z,94893.06
2023-09-20T11:19:17.725Z,94873.66
2023-09-20T11:20:14.645Z,94860.56
2023-09-20T11:21:11.864Z,94887.97
2023-09-20T11:22:08.983Z,94931.63
2023-09-20T11:23:05.949Z,94943.28
2023-09-20T11:24:02.866Z,94747.56
2023-09-20T11:25:01.717Z,94867.84
2023-09-20T11:26:01.233Z,94931.41
2023-09-20T11:26:58.406Z,94919.47
2023-09-20T11:27:56.343Z,94898.03
2023-09-20T11:28:54.123Z,94846.81
2023-09-20T11:29:51.303Z,94844.94
2023-09-20T11:30:52.821Z,94856.09
2023-09-20T11:31:50.099Z,94909.03
2023-09-20T11:32:47.006Z,94849.16
2023-09-20T11:33:43.818Z,94841.00
2023-09-20T11:34:45.516Z,94844.53
2023-09-20T11:35:43.811Z,94910.59
2023-09-20T11:36:46.564Z,94914.03
2023-09-20T11:37:43.879Z,94835.88
2023-09-20T11:38:41.042Z,94910.69
2023-09-20T11:39:43.426Z,94914.91
2023-09-20T11:40:43.002Z,94913.75
2023-09-20T11:41:44.204Z,94877.59
2023-09-20T11:42:44.408Z,94906.31
2023-09-20T11:43:42.403Z,94904.47